createdAt,value
2022-10-06T00:00:01.238Z,58.3
2022-10-06T00:01:01.631Z,58.1
2022-10-06T00:02:00.922Z,58.1
2022-10-06T00:03:01.506Z,57.9
2022-10-06T00:04:01.118Z,57.7
2022-10-06T00:05:00.927Z,57.9
2022-10-06T00:06:02.784Z,57.7
2022-10-06T00:07:01.245Z,57.7
2022-10-06T00:08:01.402Z,57.6
2022-10-06T00:09:01.247Z,57.7
2022-10-06T00:10:01.425Z,57.9
2022-10-06T00:11:01.600Z,58.1
2022-10-06T00:12:01.378Z,58.3
2022-10-06T00:13:01.500Z,58.5
2022-10-06T00:14:00.935Z,58.3
2022-10-06T00:15:01.231Z,58.5
2022-10-06T00:16:01.464Z,58.6
2022-10-06T00:17:01.358Z,58.6
2022-10-06T00:18:01.839Z,58.8
2022-10-06T00:19:00.959Z,58.8
2022-10-06T00:20:01.387Z,58.5
2022-10-06T00:21:01.417Z,58.5
2022-10-06T00:22:01.388Z,57.9
2022-10-06T00:23:00.941Z,58.1
2022-10-06T00:24:00.974Z,57.7
2022-10-06T00:25:01.171Z,57.9
2022-10-06T00:26:01.914Z,58.3
2022-10-06T00:27:01.173Z,58.1
2022-10-06T00:28:01.526Z,58.1
2022-10-06T00:29:01.331Z,58.1
2022-10-06T00:30:01.076Z,58.1
2022-10-06T00:31:01.208Z,58.1
2022-10-06T00:32:00.951Z,58.5
2022-10-06T00:33:02.842Z,59.4
2022-10-06T00:34:00.944Z,59.0
2022-10-06T00:35:01.383Z,59.0
2022-10-06T00:36:01.215Z,58.3
2022-10-06T00:37:01.170Z,58.6
2022-10-06T00:38:01.528Z,58.6
2022-10-06T00:39:01.257Z,58.8
2022-10-06T00:40:02.085Z,58.6
2022-10-06T00:41:01.620Z,58.1
2022-10-06T00:42:00.924Z,57.7
2022-10-06T00:43:03.010Z,57.6
2022-10-06T00:44:01.241Z,57.4
2022-10-06T00:45:05.022Z,57.4
2022-10-06T00:46:01.393Z,57.4
2022-10-06T00:47:01.327Z,57.6
2022-10-06T00:48:06.741Z,57.2
2022-10-06T00:49:09.928Z,57.2
2022-10-06T00:50:01.583Z,57.2
2022-10-06T00:51:01.456Z,57.2
2022-10-06T00:52:04.180Z,57.6
2022-10-06T00:53:02.006Z,57.2
2022-10-06T00:54:02.410Z,57.2
2022-10-06T00:55:01.248Z,57.4
2022-10-06T00:56:00.998Z,57.0
2022-10-06T00:57:02.059Z,57.4
2022-10-06T00:58:01.387Z,57.6
2022-10-06T00:59:01.107Z,57.6
2022-10-06T01:00:01.424Z,57.6
2022-10-06T01:01:02.922Z,57.9
2022-10-06T01:02:08.442Z,58.3
2022-10-06T01:03:07.657Z,57.7
2022-10-06T01:04:08.578Z,58.1
2022-10-06T01:05:04.520Z,58.1
2022-10-06T01:06:02.442Z,57.9
2022-10-06T01:07:02.443Z,57.9
2022-10-06T01:08:01.800Z,57.9
2022-10-06T01:09:01.272Z,58.1
2022-10-06T01:10:01.330Z,57.9
2022-10-06T01:11:01.221Z,57.7
2022-10-06T01:12:04.648Z,58.1
2022-10-06T01:13:01.809Z,58.1
2022-10-06T01:14:01.316Z,58.1
2022-10-06T01:15:01.712Z,58.1
2022-10-06T01:16:08.508Z,58.3
2022-10-06T01:17:05.622Z,58.5
2022-10-06T01:18:05.876Z,59.0
2022-10-06T01:19:02.583Z,59.2
2022-10-06T01:22:05.563Z,58.8
2022-10-06T01:23:04.471Z,59.0
2022-10-06T01:24:02.602Z,58.8
2022-10-06T01:25:01.633Z,58.6
2022-10-06T01:26:03.996Z,58.3
2022-10-06T01:27:02.993Z,58.6
2022-10-06T01:28:03.959Z,59.0
2022-10-06T01:29:01.570Z,59.0
2022-10-06T01:30:02.279Z,58.3
2022-10-06T01:31:02.082Z,58.5
2022-10-06T01:32:01.629Z,58.6
2022-10-06T01:33:01.925Z,58.6
2022-10-06T01:34:01.233Z,58.5
2022-10-06T01:35:01.455Z,58.3
2022-10-06T01:36:01.252Z,58.3
2022-10-06T01:37:01.252Z,58.6
2022-10-06T01:38:01.205Z,59.4
2022-10-06T01:39:01.200Z,59.7
2022-10-06T01:40:01.312Z,59.7
2022-10-06T01:41:01.274Z,59.5
2022-10-06T01:42:01.676Z,59.9
2022-10-06T01:43:00.998Z,59.4
2022-10-06T01:44:01.175Z,59.7
2022-10-06T01:45:02.132Z,60.1
2022-10-06T01:46:00.961Z,59.9
2022-10-06T01:47:04.065Z,60.4
2022-10-06T01:48:01.092Z,60.4
2022-10-06T01:49:00.914Z,60.4
2022-10-06T01:50:01.309Z,60.6
2022-10-06T01:51:01.224Z,60.4
2022-10-06T01:52:01.449Z,60.8
2022-10-06T01:53:01.299Z,61.2
2022-10-06T01:54:00.926Z,61.9
2022-10-06T01:55:01.545Z,62.1
2022-10-06T01:56:00.947Z,62.2
2022-10-06T01:57:01.579Z,61.9
2022-10-06T01:58:01.278Z,62.2
2022-10-06T01:59:00.934Z,61.9
2022-10-06T02:00:01.287Z,61.9
2022-10-06T02:01:03.846Z,61.7
2022-10-06T02:02:01.536Z,61.3
2022-10-06T02:03:01.319Z,61.3
2022-10-06T02:04:01.328Z,61.7
2022-10-06T02:05:01.348Z,61.7
2022-10-06T02:06:01.129Z,62.1
2022-10-06T02:07:01.247Z,62.1
2022-10-06T02:08:01.648Z,61.9
2022-10-06T02:09:01.241Z,62.4
2022-10-06T02:10:01.722Z,62.1
2022-10-06T02:11:04.825Z,61.7
2022-10-06T02:12:00.937Z,61.9
2022-10-06T02:13:00.926Z,62.2
2022-10-06T02:14:01.108Z,62.4
2022-10-06T02:15:01.341Z,62.4
2022-10-06T02:16:01.302Z,62.6
2022-10-06T02:17:01.216Z,63.1
2022-10-06T02:18:00.939Z,63.0
2022-10-06T02:19:01.265Z,63.1
2022-10-06T02:20:01.238Z,63.7
2022-10-06T02:21:01.687Z,64.0
2022-10-06T02:22:01.315Z,64.2
2022-10-06T02:23:01.135Z,64.0
2022-10-06T02:24:01.537Z,64.2
2022-10-06T02:25:00.945Z,64.6
2022-10-06T02:26:03.426Z,64.8
2022-10-06T02:27:01.229Z,64.8
2022-10-06T02:28:01.380Z,64.4
2022-10-06T02:29:00.950Z,64.6
2022-10-06T02:30:00.977Z,64.6
2022-10-06T02:31:01.587Z,64.6
2022-10-06T02:32:01.676Z,64.2
2022-10-06T02:33:01.250Z,63.3
2022-10-06T02:34:01.319Z,63.5
2022-10-06T02:35:01.123Z,64.0
2022-10-06T02:36:02.012Z,63.5
2022-10-06T02:37:00.955Z,62.8
2022-10-06T02:38:00.953Z,62.6
2022-10-06T02:39:01.645Z,62.2
2022-10-06T02:40:01.430Z,61.9
2022-10-06T02:41:01.723Z,61.5
2022-10-06T02:42:00.933Z,61.7
2022-10-06T02:43:01.242Z,61.3
2022-10-06T02:44:01.076Z,61.2
2022-10-06T02:45:00.941Z,61.0
2022-10-06T02:46:03.700Z,61.0
2022-10-06T02:47:00.924Z,61.3
2022-10-06T02:48:00.951Z,60.8
2022-10-06T02:49:01.226Z,60.6
2022-10-06T02:50:03.519Z,60.8
2022-10-06T02:51:03.046Z,60.8
2022-10-06T02:52:01.218Z,61.2
2022-10-06T02:53:01.223Z,61.0
2022-10-06T02:54:00.940Z,60.8
2022-10-06T02:55:01.957Z,60.6
2022-10-06T02:56:03.807Z,60.8
2022-10-06T02:57:00.974Z,60.6
2022-10-06T02:58:01.585Z,60.6
2022-10-06T02:59:00.940Z,61.3
2022-10-06T03:00:01.256Z,62.2
2022-10-06T03:01:02.748Z,62.6
2022-10-06T03:02:01.186Z,63.1
2022-10-06T03:03:00.954Z,62.6
2022-10-06T03:04:00.934Z,63.1
2022-10-06T03:05:01.356Z,63.3
2022-10-06T03:06:03.377Z,63.5
2022-10-06T03:07:00.933Z,63.0
2022-10-06T03:08:00.938Z,63.5
2022-10-06T03:09:04.653Z,63.9
2022-10-06T03:10:00.933Z,64.2
2022-10-06T03:11:02.837Z,63.7
2022-10-06T03:12:01.292Z,63.5
2022-10-06T03:13:01.256Z,63.3
2022-10-06T03:14:01.058Z,63.3
2022-10-06T03:15:01.258Z,62.2
2022-10-06T03:16:01.030Z,62.8
2022-10-06T03:17:01.275Z,63.1
2022-10-06T03:18:01.205Z,63.3
2022-10-06T03:19:01.378Z,62.6
2022-10-06T03:20:00.975Z,62.2
2022-10-06T03:21:01.263Z,62.6
2022-10-06T03:22:00.988Z,62.4
2022-10-06T03:23:01.237Z,62.4
2022-10-06T03:24:01.548Z,62.8
2022-10-06T03:25:01.216Z,62.8
2022-10-06T03:26:00.917Z,63.0
2022-10-06T03:27:01.259Z,62.6
2022-10-06T03:28:01.329Z,62.4
2022-10-06T03:29:02.166Z,62.1
2022-10-06T03:30:01.205Z,62.8
2022-10-06T03:31:01.892Z,62.8
2022-10-06T03:32:00.942Z,63.1
2022-10-06T03:33:00.987Z,63.7
2022-10-06T03:34:01.810Z,63.9
2022-10-06T03:35:00.927Z,63.9
2022-10-06T03:36:03.290Z,63.9
2022-10-06T03:37:00.940Z,64.0
2022-10-06T03:38:00.927Z,62.6
2022-10-06T03:39:02.355Z,63.1
2022-10-06T03:40:00.933Z,63.9
2022-10-06T03:41:04.567Z,63.0
2022-10-06T03:42:01.244Z,63.7
2022-10-06T03:43:00.942Z,64.0
2022-10-06T03:44:01.548Z,63.9
2022-10-06T03:45:01.637Z,63.7
2022-10-06T03:46:02.392Z,63.3
2022-10-06T03:47:01.627Z,63.3
2022-10-06T03:48:00.962Z,63.1
2022-10-06T03:49:01.181Z,62.2
2022-10-06T03:50:00.944Z,61.9
2022-10-06T03:51:02.964Z,61.2
2022-10-06T03:52:01.228Z,61.2
2022-10-06T03:53:01.438Z,61.7
2022-10-06T03:54:01.386Z,62.4
2022-10-06T03:55:00.936Z,62.6
2022-10-06T03:56:04.381Z,62.8
2022-10-06T03:57:00.950Z,63.1
2022-10-06T03:58:01.231Z,63.0
2022-10-06T03:59:03.374Z,62.4
2022-10-06T04:00:01.254Z,62.4
2022-10-06T04:01:03.532Z,62.4
2022-10-06T04:02:01.293Z,61.5
2022-10-06T04:03:00.937Z,61.9
2022-10-06T04:04:02.249Z,62.2
2022-10-06T04:05:00.952Z,61.7
2022-10-06T04:06:03.713Z,61.0
2022-10-06T04:07:01.566Z,61.2
2022-10-06T04:08:01.239Z,61.5
2022-10-06T04:09:01.495Z,61.0
2022-10-06T04:10:00.960Z,60.4
2022-10-06T04:11:06.057Z,60.1
2022-10-06T04:12:00.929Z,59.7
2022-10-06T04:13:00.920Z,60.1
2022-10-06T04:14:03.304Z,59.5
2022-10-06T04:15:01.230Z,59.7
2022-10-06T04:16:08.537Z,59.5
2022-10-06T04:17:00.974Z,59.9
2022-10-06T04:18:01.147Z,60.1
2022-10-06T04:19:03.167Z,60.8
2022-10-06T04:20:00.935Z,60.3
2022-10-06T04:21:01.359Z,60.1
2022-10-06T04:22:00.968Z,59.7
2022-10-06T04:23:01.279Z,60.3
2022-10-06T04:24:01.240Z,59.5
2022-10-06T04:25:00.911Z,59.9
2022-10-06T04:26:03.172Z,60.3
2022-10-06T04:27:01.216Z,60.6
2022-10-06T04:28:01.255Z,59.9
2022-10-06T04:29:01.545Z,59.7
2022-10-06T04:30:01.254Z,59.9
2022-10-06T04:31:01.799Z,60.6
2022-10-06T04:32:01.293Z,61.0
2022-10-06T04:33:01.319Z,60.3
2022-10-06T04:34:01.331Z,60.6
2022-10-06T04:35:01.222Z,60.3
2022-10-06T04:36:04.097Z,59.9
2022-10-06T04:37:00.937Z,59.4
2022-10-06T04:38:00.937Z,59.4
2022-10-06T04:39:03.455Z,60.1
2022-10-06T04:40:01.783Z,59.9
2022-10-06T04:41:04.981Z,59.7
2022-10-06T04:42:01.279Z,59.5
2022-10-06T04:43:00.921Z,59.5
2022-10-06T04:44:02.149Z,60.4
2022-10-06T04:45:01.255Z,59.9
2022-10-06T04:46:13.113Z,60.1
2022-10-06T04:47:00.981Z,59.9
2022-10-06T04:48:01.223Z,60.1
2022-10-06T04:49:01.423Z,60.1
2022-10-06T04:50:01.235Z,60.1
2022-10-06T04:51:03.464Z,61.0
2022-10-06T04:52:00.946Z,61.0
2022-10-06T04:53:01.246Z,60.1
2022-10-06T04:54:01.240Z,59.9
2022-10-06T04:55:00.929Z,60.3
2022-10-06T04:56:03.170Z,60.3
2022-10-06T04:57:01.288Z,60.4
2022-10-06T04:58:01.218Z,60.1
2022-10-06T04:59:01.232Z,60.3
2022-10-06T05:00:06.807Z,60.4
2022-10-06T05:01:02.800Z,60.6
2022-10-06T05:02:01.476Z,60.6
2022-10-06T05:03:00.941Z,60.4
2022-10-06T05:04:02.555Z,60.1
2022-10-06T05:05:01.394Z,60.1
2022-10-06T05:06:03.887Z,59.7
2022-10-06T05:07:00.934Z,60.1
2022-10-06T05:08:01.391Z,60.3
2022-10-06T05:09:04.596Z,60.1
2022-10-06T05:10:01.236Z,59.5
2022-10-06T05:11:02.366Z,59.4
2022-10-06T05:12:01.349Z,58.8
2022-10-06T05:13:01.231Z,58.5
2022-10-06T05:14:01.476Z,58.8
2022-10-06T05:15:01.231Z,59.2
2022-10-06T05:16:02.289Z,59.2
2022-10-06T05:17:01.226Z,59.0
2022-10-06T05:18:00.967Z,59.0
2022-10-06T05:19:01.225Z,58.6
2022-10-06T05:20:01.237Z,58.3
2022-10-06T05:21:06.648Z,57.9
2022-10-06T05:22:00.968Z,57.9
2022-10-06T05:23:01.281Z,58.3
2022-10-06T05:24:01.686Z,58.5
2022-10-06T05:25:01.283Z,58.3
2022-10-06T05:26:01.642Z,59.0
2022-10-06T05:27:02.006Z,59.2
2022-10-06T05:28:01.280Z,58.8
2022-10-06T05:29:01.963Z,59.5
2022-10-06T05:30:00.961Z,59.9
2022-10-06T05:31:02.331Z,59.4
2022-10-06T05:32:01.028Z,59.4
2022-10-06T05:33:00.960Z,59.7
2022-10-06T05:34:01.033Z,59.4
2022-10-06T05:35:01.363Z,59.7
2022-10-06T05:36:03.539Z,60.4
2022-10-06T05:37:00.933Z,60.1
2022-10-06T05:38:00.918Z,59.7
2022-10-06T05:39:02.302Z,59.5
2022-10-06T05:40:00.919Z,60.3
2022-10-06T05:41:02.512Z,60.4
2022-10-06T05:42:00.928Z,60.3
2022-10-06T05:43:00.915Z,60.8
2022-10-06T05:44:01.517Z,60.8
2022-10-06T05:45:00.952Z,60.6
2022-10-06T05:46:03.311Z,60.4
2022-10-06T05:47:00.927Z,61.2
2022-10-06T05:48:00.931Z,62.2
2022-10-06T05:49:03.560Z,62.2
2022-10-06T05:50:00.936Z,61.5
2022-10-06T05:51:03.463Z,60.4
2022-10-06T05:52:00.943Z,60.8
2022-10-06T05:53:01.241Z,61.2
2022-10-06T05:54:01.610Z,61.2
2022-10-06T05:55:00.979Z,60.8
2022-10-06T05:56:04.192Z,60.4
2022-10-06T05:57:01.068Z,60.6
2022-10-06T05:58:00.913Z,61.0
2022-10-06T05:59:01.349Z,61.3
2022-10-06T06:00:00.975Z,60.8
2022-10-06T06:01:10.395Z,60.6
2022-10-06T06:02:01.101Z,60.8
2022-10-06T06:03:01.005Z,61.0
2022-10-06T06:04:03.396Z,61.3
2022-10-06T06:05:00.923Z,61.7
2022-10-06T06:06:02.005Z,61.9
2022-10-06T06:07:01.223Z,61.5
2022-10-06T06:08:01.198Z,61.5
2022-10-06T06:09:03.381Z,62.1
2022-10-06T06:10:01.326Z,62.2
2022-10-06T06:11:08.315Z,63.1
2022-10-06T06:12:00.913Z,62.8
2022-10-06T06:13:00.955Z,62.2
2022-10-06T06:14:03.926Z,61.2
2022-10-06T06:15:01.219Z,60.6
2022-10-06T06:16:02.471Z,60.1
2022-10-06T06:17:00.959Z,59.9
2022-10-06T06:18:01.249Z,60.1
2022-10-06T06:19:02.206Z,59.7
2022-10-06T06:20:00.928Z,59.7
2022-10-06T06:21:03.415Z,59.9
2022-10-06T06:22:01.228Z,59.4
2022-10-06T06:23:00.952Z,59.0
2022-10-06T06:24:02.043Z,59.7
2022-10-06T06:25:01.307Z,59.7
2022-10-06T06:26:03.714Z,59.5
2022-10-06T06:27:01.258Z,59.5
2022-10-06T06:28:01.302Z,59.7
2022-10-06T06:29:01.947Z,59.5
2022-10-06T06:30:01.596Z,59.9
2022-10-06T06:31:03.325Z,60.1
2022-10-06T06:32:00.921Z,59.9
2022-10-06T06:33:00.938Z,60.4
2022-10-06T06:34:02.546Z,60.4
2022-10-06T06:35:00.921Z,59.7
2022-10-06T06:36:01.252Z,59.4
2022-10-06T06:37:06.193Z,59.2
2022-10-06T06:38:00.938Z,59.2
2022-10-06T06:39:03.939Z,58.8
2022-10-06T06:40:00.956Z,58.8
2022-10-06T06:41:01.023Z,59.4
2022-10-06T06:42:00.935Z,58.8
2022-10-06T06:43:00.971Z,59.0
2022-10-06T06:44:01.406Z,59.2
2022-10-06T06:45:01.238Z,59.2
2022-10-06T06:46:02.325Z,59.4
2022-10-06T06:47:01.225Z,59.7
2022-10-06T06:48:00.937Z,60.1
2022-10-06T06:49:02.038Z,60.4
2022-10-06T06:50:00.925Z,60.1
2022-10-06T06:51:01.220Z,60.1
2022-10-06T06:52:01.111Z,59.9
2022-10-06T06:53:00.930Z,60.4
2022-10-06T06:54:01.291Z,60.6
2022-10-06T06:55:00.924Z,60.3
2022-10-06T06:56:01.252Z,59.4
2022-10-06T06:57:01.224Z,59.0
2022-10-06T06:58:00.931Z,58.6
2022-10-06T06:59:02.034Z,58.8
2022-10-06T07:00:00.991Z,59.0
2022-10-06T07:01:05.207Z,59.0
2022-10-06T07:02:01.081Z,58.8
2022-10-06T07:03:01.200Z,58.6
2022-10-06T07:04:00.935Z,58.6
2022-10-06T07:05:01.241Z,58.8
2022-10-06T07:06:04.901Z,58.6
2022-10-06T07:07:00.937Z,59.4
2022-10-06T07:08:00.929Z,58.8
2022-10-06T07:09:00.946Z,58.6
2022-10-06T07:10:01.428Z,59.0
2022-10-06T07:11:10.454Z,58.6
2022-10-06T07:12:00.976Z,58.3
2022-10-06T07:13:01.286Z,58.3
2022-10-06T07:14:03.824Z,58.3
2022-10-06T07:15:00.927Z,58.3
2022-10-06T07:16:00.945Z,58.5
2022-10-06T07:17:00.913Z,58.3
2022-10-06T07:18:02.726Z,58.8
2022-10-06T07:19:02.019Z,58.6
2022-10-06T07:20:00.921Z,58.6
2022-10-06T07:21:01.240Z,59.0
2022-10-06T07:22:08.317Z,58.3
2022-10-06T07:23:01.259Z,58.5
2022-10-06T07:24:00.948Z,58.5
2022-10-06T07:25:07.414Z,58.1
2022-10-06T07:26:00.944Z,58.3
2022-10-06T07:27:00.946Z,58.6
2022-10-06T07:28:00.979Z,58.5
2022-10-06T07:29:01.233Z,58.8
2022-10-06T07:30:01.437Z,58.8
2022-10-06T07:31:01.331Z,58.5
2022-10-06T07:32:01.245Z,58.8
2022-10-06T07:33:01.283Z,58.6
2022-10-06T07:34:02.491Z,58.5
2022-10-06T07:35:01.253Z,58.8
2022-10-06T07:36:01.723Z,59.4
2022-10-06T07:37:04.147Z,58.8
2022-10-06T07:38:01.697Z,58.6
2022-10-06T07:39:00.943Z,59.0
2022-10-06T07:40:02.170Z,59.4
2022-10-06T07:41:18.476Z,59.9
2022-10-06T07:42:00.930Z,59.7
2022-10-06T07:43:01.232Z,58.8
2022-10-06T07:44:05.791Z,59.2
2022-10-06T07:45:01.229Z,59.0
2022-10-06T07:46:00.971Z,58.8
2022-10-06T07:47:01.541Z,58.8
2022-10-06T07:48:01.600Z,58.8
2022-10-06T07:49:01.223Z,59.0
2022-10-06T07:50:00.915Z,58.8
2022-10-06T07:51:00.925Z,58.5
2022-10-06T07:52:01.528Z,58.3
2022-10-06T07:53:00.919Z,58.6
2022-10-06T07:54:01.495Z,58.5
2022-10-06T07:55:00.937Z,58.5
2022-10-06T07:56:05.036Z,59.0
2022-10-06T07:57:01.244Z,59.5
2022-10-06T07:58:01.307Z,59.4
2022-10-06T07:59:01.247Z,59.4
2022-10-06T08:00:03.461Z,59.4
2022-10-06T08:01:05.784Z,59.5
2022-10-06T08:02:00.990Z,59.5
2022-10-06T08:03:01.429Z,59.0
2022-10-06T08:04:00.954Z,58.8
2022-10-06T08:05:01.216Z,59.2
2022-10-06T08:06:01.599Z,58.8
2022-10-06T08:07:00.987Z,58.6
2022-10-06T08:08:01.661Z,58.6
2022-10-06T08:09:01.809Z,58.3
2022-10-06T08:10:01.249Z,58.3
2022-10-06T08:11:01.950Z,58.6
2022-10-06T08:12:01.243Z,58.6
2022-10-06T08:13:03.796Z,58.3
2022-10-06T08:14:00.936Z,58.3
2022-10-06T08:15:04.559Z,58.1
2022-10-06T08:16:04.140Z,57.7
2022-10-06T08:17:00.953Z,57.7
2022-10-06T08:18:01.501Z,58.1
2022-10-06T08:19:00.949Z,58.1
2022-10-06T08:20:01.577Z,58.3
2022-10-06T08:21:08.513Z,57.7
2022-10-06T08:22:04.650Z,57.7
2022-10-06T08:23:00.980Z,57.6
2022-10-06T08:24:01.622Z,57.7
2022-10-06T08:25:06.219Z,57.6
2022-10-06T08:26:00.930Z,57.6
2022-10-06T08:27:01.123Z,57.6
2022-10-06T08:28:01.454Z,57.4
2022-10-06T08:29:01.303Z,57.9
2022-10-06T08:30:02.537Z,57.9
2022-10-06T08:31:04.161Z,57.9
2022-10-06T08:32:01.261Z,58.1
2022-10-06T08:33:01.263Z,57.9
2022-10-06T08:34:00.937Z,57.9
2022-10-06T08:35:01.467Z,57.9
2022-10-06T08:36:04.179Z,58.1
2022-10-06T08:37:19.517Z,57.9
2022-10-06T08:38:01.103Z,58.1
2022-10-06T08:39:01.701Z,57.9
2022-10-06T08:40:01.307Z,58.3
2022-10-06T08:41:01.616Z,58.1
2022-10-06T08:42:01.171Z,58.3
2022-10-06T08:43:02.254Z,58.1
2022-10-06T08:44:05.232Z,58.3
2022-10-06T08:45:05.243Z,58.3
2022-10-06T08:46:03.097Z,58.1
2022-10-06T08:47:03.921Z,57.9
2022-10-06T08:48:04.994Z,58.3
2022-10-06T08:49:01.898Z,58.5
2022-10-06T08:50:04.118Z,59.0
2022-10-06T08:51:08.024Z,58.8
2022-10-06T08:52:15.709Z,58.6
2022-10-06T08:53:11.810Z,58.6
2022-10-06T08:54:07.924Z,58.8
2022-10-06T08:55:13.306Z,58.8
2022-10-06T08:56:07.461Z,58.8
2022-10-06T08:57:09.804Z,58.8
2022-10-06T08:58:12.584Z,59.0
2022-10-06T08:59:03.776Z,58.8
2022-10-06T09:00:01.384Z,59.2
2022-10-06T09:01:13.556Z,59.0
2022-10-06T09:02:01.459Z,59.2
2022-10-06T09:03:01.663Z,60.1
2022-10-06T09:04:03.906Z,59.7
2022-10-06T09:05:05.323Z,60.6
2022-10-06T09:06:08.091Z,60.4
2022-10-06T09:07:05.535Z,60.6
2022-10-06T09:08:19.114Z,61.3
2022-10-06T09:09:09.215Z,61.5
2022-10-06T09:10:20.066Z,60.4
2022-10-06T09:11:13.387Z,60.1
2022-10-06T09:12:10.324Z,59.9
2022-10-06T09:13:06.142Z,59.7
2022-10-06T09:14:05.540Z,59.4
2022-10-06T09:15:16.461Z,59.4
2022-10-06T09:16:05.025Z,59.2
2022-10-06T09:17:05.604Z,59.5
2022-10-06T09:18:08.860Z,59.0
2022-10-06T09:19:09.509Z,59.4
2022-10-06T09:20:05.862Z,59.7
2022-10-06T09:21:02.784Z,59.2
2022-10-06T09:22:03.795Z,59.4
2022-10-06T09:23:02.922Z,59.2
2022-10-06T09:24:09.839Z,59.4
2022-10-06T09:25:14.759Z,59.0
2022-10-06T09:26:02.024Z,59.7
2022-10-06T09:27:15.588Z,59.2
2022-10-06T09:28:01.642Z,59.2
2022-10-06T09:29:02.083Z,59.4
2022-10-06T09:30:01.761Z,59.2
2022-10-06T09:31:01.271Z,59.4
2022-10-06T09:32:01.237Z,59.0
2022-10-06T09:33:04.489Z,59.2
2022-10-06T09:34:08.291Z,59.7
2022-10-06T09:35:10.125Z,59.7
2022-10-06T09:36:03.130Z,60.4
2022-10-06T09:37:03.311Z,61.2
2022-10-06T09:38:07.835Z,61.7
2022-10-06T09:39:01.225Z,61.7
2022-10-06T09:40:00.934Z,61.0
2022-10-06T09:41:01.276Z,61.0
2022-10-06T09:42:03.635Z,61.5
2022-10-06T09:43:01.805Z,61.2
2022-10-06T09:44:04.932Z,60.8
2022-10-06T09:45:03.931Z,60.4
2022-10-06T09:46:19.135Z,60.8
2022-10-06T09:47:01.237Z,61.2
2022-10-06T09:48:12.210Z,61.5
2022-10-06T09:49:14.995Z,61.9
2022-10-06T09:50:13.736Z,62.6
2022-10-06T09:51:12.894Z,62.4
2022-10-06T09:52:12.310Z,62.6
2022-10-06T09:53:03.658Z,62.4
2022-10-06T09:54:09.845Z,61.7
2022-10-06T09:55:07.964Z,62.2
2022-10-06T09:56:02.747Z,61.7
2022-10-06T09:57:09.692Z,61.7
2022-10-06T09:58:02.051Z,61.5
2022-10-06T09:59:01.280Z,61.7
2022-10-06T10:00:01.099Z,61.2
2022-10-06T10:01:04.718Z,61.7
2022-10-06T10:02:01.601Z,60.8
2022-10-06T10:03:03.763Z,60.4
2022-10-06T10:04:20.194Z,60.1
2022-10-06T10:05:02.030Z,60.6
2022-10-06T10:06:01.552Z,61.0
2022-10-06T10:07:12.940Z,61.5
2022-10-06T10:08:02.412Z,61.0
2022-10-06T10:09:21.975Z,61.2
2022-10-06T10:10:18.236Z,61.2
2022-10-06T10:11:12.223Z,61.7
2022-10-06T10:12:10.807Z,61.3
2022-10-06T10:13:00.948Z,60.8
2022-10-06T10:14:01.215Z,60.4
2022-10-06T10:15:12.624Z,59.9
2022-10-06T10:16:02.480Z,59.9
2022-10-06T10:17:09.337Z,59.9
2022-10-06T10:18:04.126Z,60.1
2022-10-06T10:19:02.585Z,60.4
2022-10-06T10:20:02.326Z,61.0
2022-10-06T10:21:03.371Z,61.5
2022-10-06T10:22:02.998Z,61.7
2022-10-06T10:23:04.916Z,61.7
2022-10-06T10:24:04.741Z,61.5
2022-10-06T10:25:13.753Z,61.2
2022-10-06T10:26:14.420Z,61.5
2022-10-06T10:27:09.677Z,61.5
2022-10-06T10:28:13.217Z,61.3
2022-10-06T10:29:15.698Z,61.2
2022-10-06T10:30:07.250Z,61.7
2022-10-06T10:31:09.331Z,62.2
2022-10-06T10:32:10.099Z,62.4
2022-10-06T10:33:11.187Z,61.3
2022-10-06T10:34:23.475Z,60.6
2022-10-06T10:35:08.128Z,60.3
2022-10-06T10:36:03.994Z,60.4
2022-10-06T10:37:08.163Z,60.1
2022-10-06T10:38:05.972Z,60.1
2022-10-06T10:39:04.028Z,59.9
2022-10-06T10:40:05.649Z,59.4
2022-10-06T10:41:08.422Z,59.4
2022-10-06T10:42:08.434Z,59.5
2022-10-06T10:43:11.334Z,60.1
2022-10-06T10:44:08.892Z,60.3
2022-10-06T10:45:03.461Z,59.9
2022-10-06T10:46:06.035Z,60.3
2022-10-06T10:47:12.997Z,59.9
2022-10-06T10:48:06.242Z,59.7
2022-10-06T10:49:09.371Z,59.7
2022-10-06T10:50:08.063Z,59.4
2022-10-06T10:51:09.411Z,59.4
2022-10-06T10:52:08.931Z,59.0
2022-10-06T10:53:10.405Z,59.2
2022-10-06T10:54:04.699Z,60.1
2022-10-06T10:55:15.948Z,60.4
2022-10-06T10:56:01.543Z,61.3
2022-10-06T10:57:00.991Z,61.9
2022-10-06T10:58:13.812Z,62.1
2022-10-06T10:59:15.398Z,62.2
2022-10-06T11:00:04.708Z,62.8
2022-10-06T11:01:14.235Z,62.4
2022-10-06T11:02:11.128Z,61.9
2022-10-06T11:03:01.298Z,61.5
2022-10-06T11:04:02.114Z,61.9
2022-10-06T11:05:11.468Z,62.1
2022-10-06T11:06:13.452Z,61.9
2022-10-06T11:07:16.014Z,61.9
2022-10-06T11:08:05.658Z,61.7
2022-10-06T11:09:06.725Z,61.5
2022-10-06T11:10:10.288Z,61.2
2022-10-06T11:11:07.147Z,60.6
2022-10-06T11:12:13.760Z,60.1
2022-10-06T11:13:12.842Z,60.6
2022-10-06T11:14:06.811Z,61.7
2022-10-06T11:15:04.299Z,62.4
2022-10-06T11:16:14.628Z,62.8
2022-10-06T11:17:12.479Z,62.8
2022-10-06T11:18:12.623Z,63.3
2022-10-06T11:19:13.818Z,63.3
2022-10-06T11:20:13.568Z,63.5
2022-10-06T11:21:10.375Z,64.0
2022-10-06T11:22:05.704Z,64.0
2022-10-06T11:23:16.375Z,63.9
2022-10-06T11:24:09.388Z,63.5
2022-10-06T11:25:14.871Z,63.9
2022-10-06T11:26:10.435Z,63.1
2022-10-06T11:27:15.808Z,62.8
2022-10-06T11:28:06.687Z,62.2
2022-10-06T11:29:12.542Z,61.5
2022-10-06T11:30:06.364Z,62.4
2022-10-06T11:31:08.466Z,63.1
2022-10-06T11:32:15.936Z,62.4
2022-10-06T11:33:12.022Z,61.7
2022-10-06T11:34:03.707Z,62.6
2022-10-06T11:35:02.528Z,62.8
2022-10-06T11:36:02.338Z,63.5
2022-10-06T11:37:12.638Z,64.0
2022-10-06T11:38:10.974Z,64.4
2022-10-06T11:39:13.158Z,63.7
2022-10-06T11:40:15.181Z,63.7
2022-10-06T11:41:09.637Z,62.8
2022-10-06T11:42:12.807Z,62.4
2022-10-06T11:43:08.378Z,62.8
2022-10-06T11:44:10.599Z,63.0
2022-10-06T11:45:04.214Z,63.5
2022-10-06T11:46:09.242Z,63.7
2022-10-06T11:47:07.314Z,63.7
2022-10-06T11:48:20.411Z,64.2
2022-10-06T11:49:20.417Z,63.9
2022-10-06T11:50:01.292Z,64.2
2022-10-06T11:51:20.440Z,64.6
2022-10-06T11:52:20.434Z,64.2
2022-10-06T11:53:01.077Z,63.7
2022-10-06T11:54:01.283Z,63.7
2022-10-06T11:55:12.298Z,63.7
2022-10-06T11:56:20.495Z,62.6
2022-10-06T11:57:01.001Z,62.1
2022-10-06T11:58:29.887Z,61.7
2022-10-06T11:59:10.231Z,62.1
2022-10-06T12:00:20.409Z,62.2
2022-10-06T12:01:01.256Z,63.0
2022-10-06T12:02:01.380Z,62.4
2022-10-06T12:03:20.474Z,61.9
2022-10-06T12:04:12.892Z,62.1
2022-10-06T12:05:54.761Z,63.0
2022-10-06T12:06:01.237Z,63.0
2022-10-06T12:07:02.903Z,63.5
2022-10-06T12:08:11.537Z,63.5
2022-10-06T12:09:00.936Z,63.7
2022-10-06T12:10:20.424Z,63.3
2022-10-06T12:11:01.776Z,62.2
2022-10-06T12:12:12.231Z,62.8
2022-10-06T12:13:39.988Z,63.0
2022-10-06T12:15:17.863Z,63.0
2022-10-06T12:17:15.435Z,62.4
2022-10-06T12:18:12.425Z,62.8
2022-10-06T12:19:15.716Z,62.8
2022-10-06T12:20:13.956Z,63.0
2022-10-06T12:21:15.735Z,62.6
2022-10-06T12:22:12.057Z,63.1
2022-10-06T12:23:13.775Z,64.2
2022-10-06T12:25:06.348Z,64.0
2022-10-06T12:26:14.526Z,64.0
2022-10-06T12:27:23.400Z,63.9
2022-10-06T12:28:14.233Z,63.5
2022-10-06T12:29:14.299Z,63.3
2022-10-06T12:30:13.831Z,63.9
2022-10-06T12:31:20.388Z,63.7
2022-10-06T12:32:15.909Z,64.0
2022-10-06T12:33:00.958Z,63.1
2022-10-06T12:34:01.954Z,62.6
2022-10-06T12:35:11.686Z,64.2
2022-10-06T12:36:02.836Z,64.8
2022-10-06T12:37:20.411Z,64.0
2022-10-06T12:38:01.790Z,64.6
2022-10-06T12:39:05.173Z,64.6
2022-10-06T12:40:20.410Z,64.8
2022-10-06T12:41:01.347Z,64.8
2022-10-06T12:42:05.672Z,65.8
2022-10-06T12:43:20.419Z,66.2
2022-10-06T12:44:01.212Z,66.2
2022-10-06T12:45:12.826Z,66.9
2022-10-06T12:46:03.693Z,67.1
2022-10-06T12:47:04.235Z,66.0
2022-10-06T12:48:03.849Z,66.0
2022-10-06T12:49:19.204Z,65.1
2022-10-06T12:50:04.918Z,64.9
2022-10-06T12:51:08.601Z,64.4
2022-10-06T12:52:09.146Z,63.9
2022-10-06T12:53:04.818Z,64.4
2022-10-06T12:54:09.479Z,63.7
2022-10-06T12:55:19.221Z,63.7
2022-10-06T12:56:04.325Z,64.8
2022-10-06T12:57:11.540Z,65.3
2022-10-06T12:58:01.232Z,65.5
2022-10-06T12:59:19.076Z,65.3
2022-10-06T13:00:01.339Z,65.8
2022-10-06T13:01:04.774Z,68.2
2022-10-06T13:02:07.047Z,67.6
2022-10-06T13:03:02.490Z,67.6
2022-10-06T13:04:00.951Z,68.2
2022-10-06T13:05:09.342Z,69.8
2022-10-06T13:06:03.564Z,70.5
2022-10-06T13:07:07.746Z,70.0
2022-10-06T13:08:03.290Z,68.0
2022-10-06T13:09:04.465Z,69.1
2022-10-06T13:10:16.943Z,69.6
2022-10-06T13:11:11.888Z,68.9
2022-10-06T13:12:18.481Z,70.3
2022-10-06T13:13:01.347Z,70.7
2022-10-06T13:14:12.160Z,70.9
2022-10-06T13:15:13.979Z,70.0
2022-10-06T13:16:01.164Z,71.2
2022-10-06T13:17:03.261Z,70.2
2022-10-06T13:18:11.025Z,69.8
2022-10-06T13:19:00.989Z,69.4
2022-10-06T13:20:01.372Z,70.7
2022-10-06T13:21:00.983Z,70.3
2022-10-06T13:22:02.045Z,70.2
2022-10-06T13:23:07.519Z,71.6